createdAt,value
2023-02-13T00:00:00.590Z,57.7
2023-02-13T00:10:00.597Z,63.9
2023-02-13T00:20:00.565Z,49.1
2023-02-13T00:30:00.595Z,49.1
2023-02-13T00:40:00.587Z,50.8
2023-02-13T00:50:00.557Z,46.7
2023-02-13T01:00:00.539Z,34.8
2023-02-13T01:10:00.700Z,36.5
2023-02-13T01:20:01.190Z,32.2
2023-02-13T01:30:00.748Z,28.4
2023-02-13T01:40:00.899Z,27.7
2023-02-13T01:50:00.862Z,22.9
2023-02-13T02:00:00.551Z,23.2
2023-02-13T02:10:00.558Z,21.3
2023-02-13T02:20:00.572Z,20.8
2023-02-13T02:30:00.581Z,23.7
2023-02-13T02:40:00.547Z,22.4
2023-02-13T02:50:00.567Z,24.4
2023-02-13T03:00:00.566Z,22.7
2023-02-13T03:10:00.556Z,22.8
2023-02-13T03:20:00.542Z,22.1
2023-02-13T03:30:00.543Z,24.5
2023-02-13T03:40:00.541Z,24.1
2023-02-13T03:50:00.830Z,26.2
2023-02-13T04:00:00.576Z,23.3
2023-02-13T04:10:00.555Z,25.4
2023-02-13T04:20:00.828Z,31.5
2023-02-13T04:30:00.538Z,25.9
2023-02-13T04:40:00.573Z,28.2
2023-02-13T04:50:00.531Z,25.7
2023-02-13T05:00:00.614Z,27.5
2023-02-13T05:10:00.572Z,107.1
2023-02-13T05:20:00.548Z,33.6
2023-02-13T05:30:00.554Z,40.0
2023-02-13T05:40:00.746Z,37.4
2023-02-13T05:50:00.833Z,28.1
2023-02-13T06:00:00.765Z,31.7
2023-02-13T06:10:00.556Z,28.3
2023-02-13T06:20:00.594Z,29.5
2023-02-13T06:30:00.538Z,39.0
2023-02-13T06:40:00.685Z,25.5
2023-02-13T06:50:00.619Z,32.7
2023-02-13T07:00:00.573Z,90.8
2023-02-13T07:10:00.551Z,81.0
2023-02-13T07:20:00.555Z,75.2
2023-02-13T07:30:00.542Z,90.7
2023-02-13T07:40:00.555Z,92.0
2023-02-13T07:50:00.576Z,89.6
2023-02-13T08:00:00.608Z,62.9
2023-02-13T08:10:00.583Z,66.0
2023-02-13T08:20:00.617Z,57.9
2023-02-13T08:30:00.840Z,127.1
2023-02-13T08:40:00.829Z,49.6
2023-02-13T08:50:00.552Z,48.1
2023-02-13T09:00:00.564Z,43.5
2023-02-13T09:10:00.551Z,51.8
2023-02-13T09:20:00.582Z,36.7
2023-02-13T09:30:00.551Z,34.9
2023-02-13T09:40:00.556Z,41.4
2023-02-13T09:50:00.577Z,39.4
2023-02-13T10:00:00.557Z,37.9
2023-02-13T10:10:00.586Z,32.3
2023-02-13T10:20:00.560Z,35.3
2023-02-13T10:30:00.566Z,43.4
2023-02-13T10:40:00.568Z,41.2
2023-02-13T10:50:00.785Z,40.1
2023-02-13T11:00:00.829Z,35.0
2023-02-13T11:10:00.725Z,31.3
2023-02-13T11:20:00.651Z,30.8
2023-02-13T11:30:00.548Z,25.9
2023-02-13T11:40:00.550Z,21.0
2023-02-13T11:50:00.551Z,23.8
2023-02-13T12:00:00.546Z,23.1
2023-02-13T12:10:02.723Z,22.5
2023-02-13T12:20:00.599Z,27.2
2023-02-13T12:30:00.554Z,27.0
2023-02-13T12:40:00.568Z,27.9
2023-02-13T12:50:00.881Z,29.8
2023-02-13T13:00:00.545Z,33.5
2023-02-13T13:10:00.538Z,27.9
2023-02-13T13:20:01.073Z,31.3
2023-02-13T13:30:00.835Z,35.1
2023-02-13T13:40:00.649Z,31.8
2023-02-13T13:50:00.593Z,26.3
2023-02-13T14:00:00.584Z,28.0
2023-02-13T14:10:00.564Z,25.0
2023-02-13T14:20:00.560Z,24.6
2023-02-13T14:30:00.667Z,23.6
2023-02-13T14:40:00.545Z,26.8
2023-02-13T14:50:00.568Z,22.5
2023-02-13T15:00:00.551Z,19.5
2023-02-13T15:10:00.559Z,19.1
2023-02-13T15:20:00.568Z,20.5
2023-02-13T15:30:00.614Z,17.5
2023-02-13T15:40:00.577Z,18.1
2023-02-13T15:50:00.550Z,19.7
2023-02-13T16:00:00.603Z,33.6
2023-02-13T16:10:00.545Z,29.0
2023-02-13T16:20:00.528Z,18.2
2023-02-13T16:30:00.591Z,15.2
2023-02-13T16:40:00.617Z,17.6
2023-02-13T16:50:00.559Z,19.6
2023-02-13T17:00:00.557Z,18.6
2023-02-13T17:10:00.563Z,16.7
2023-02-13T17:20:00.760Z,20.3
2023-02-13T17:30:00.703Z,22.0
2023-02-13T17:40:00.619Z,23.5
2023-02-13T17:50:09.223Z,24.1
2023-02-13T18:00:00.528Z,25.1
2023-02-13T18:10:00.578Z,23.3
2023-02-13T18:20:00.834Z,23.5
2023-02-13T18:30:01.104Z,22.8
2023-02-13T18:40:00.620Z,23.9
2023-02-13T18:50:00.568Z,23.5
2023-02-13T19:00:00.539Z,23.6
2023-02-13T19:10:00.576Z,26.1
2023-02-13T19:20:00.547Z,25.3
2023-02-13T19:30:00.827Z,21.2
2023-02-13T19:40:00.576Z,27.8
2023-02-13T19:50:00.577Z,29.2
2023-02-13T20:00:00.542Z,29.8
2023-02-13T20:10:00.559Z,29.9
2023-02-13T20:20:00.796Z,31.8
2023-02-13T20:30:06.666Z,32.8
2023-02-13T20:40:00.954Z,33.2
2023-02-13T20:50:00.858Z,37.4
2023-02-13T21:00:00.593Z,29.8
2023-02-13T21:10:00.610Z,35.5
2023-02-13T21:20:00.565Z,29.6
2023-02-13T21:30:00.627Z,15.3
2023-02-13T21:40:00.554Z,20.9
2023-02-13T21:50:00.537Z,15.5
2023-02-13T22:00:00.563Z,18.2
2023-02-13T22:10:00.553Z,25.0
2023-02-13T22:20:00.582Z,17.1
2023-02-13T22:30:00.642Z,20.6
2023-02-13T22:40:00.548Z,20.3
2023-02-13T22:50:00.580Z,26.3
2023-02-13T23:00:00.554Z,27.3
2023-02-13T23:10:00.712Z,30.0
2023-02-13T23:20:00.847Z,26.1
2023-02-13T23:30:00.886Z,26.7
2023-02-13T23:40:00.607Z,25.9
2023-02-13T23:50:00.568Z,24.1
